• Join FlightAware (Why Join?)
  • Login
  • US Flag 
07:30PM EDT


 

Airport Tracker/Info


-or-


 

Live Flight TrackerFlight Track Log ✈ DAL6032 ✈ 22-Sep-2013 ✈ KIND - KDTW

Flight Track Log - Related Links

Times and Time Zones

All times are in EDT time to prevent confusion due to time zone crossing. See the DAL6032 flight status page for this flight to view local times or setup timezone preferences in your user account.

Time Position Orientation Groundspeed Altitude Reporting Facility
EDT Latitude Longitude Course Direction KTS MPH feet Rate Location/Type
08:13AM 39.7333 -86.2833 37° Northeast 170 196 1,600  Level Indianapolis TRACON
08:14AM 39.7833 -86.2667 14° North 226 260 3,600 1,680 Climbing Indianapolis TRACON
08:15AM 39.7992 -86.2664 North 216 249 4,400 2,160 Climbing Indianapolis Center
08:16AM 39.8775 -86.2839 350° North 236 272 7,100 2,400 Climbing Indianapolis Center
08:17AM 40.0211 -85.9527 12° North  Level Estimated
08:17AM 39.9469 -86.2994 350° North 251 289 9,300  Level Indianapolis Center
08:18AM 40.0969 -85.8667 21° North  Level Estimated
08:18AM 40.0211 -86.2953 North 278 320 11,100  Level Indianapolis Center
08:19AM 40.1726 -85.7805 37° Northeast  Level Estimated
08:19AM 40.1011 -86.2622 18° North 300 345 12,500  Level Indianapolis Center
08:20AM 40.1711 -86.2644 359° North 312 359 13,900 1,680 Climbing Chicago Center
08:21AM 40.2586 -86.2667 359° North 316 364 15,600 1,620 Climbing Chicago Center
08:22AM 40.3453 -86.2686 359° North 314 361 17,300 1,320 Climbing Chicago Center
08:23AM 40.4336 -86.2561 North 331 381 18,400 780 Climbing Chicago Center
08:24AM 40.4953 -86.1553 51° Northeast 358 412 19,000 540 Climbing Chicago Center
08:25AM 40.5539 -86.0397 56° Northeast 377 434 19,600 540 Climbing Chicago Center
08:26AM 40.6150 -85.9189 56° Northeast 394 453 20,100 540 Climbing Chicago Center
08:27AM 40.6822 -85.7839 57° Northeast 409 471 20,700 420 Climbing Chicago Center
08:28AM 40.7461 -85.6561 57° Northeast 417 480 21,000 120 Climbing Chicago Center
08:29AM 40.8128 -85.5242 56° Northeast 434 499 21,000  Level Chicago Center
08:30AM 40.8778 -85.3922 57° Northeast 435 501 21,000  Level Chicago Center
08:31AM 40.9428 -85.2603 57° Northeast 432 497 21,000  Level Chicago Center
08:32AM 41.0369 -85.1253 47° Northeast 423 487 21,000  Level Chicago Center
08:33AM 41.1256 -85.0300 39° Northeast 415 478 21,000  Level Chicago Center
08:34AM 41.2119 -84.9375 39° Northeast 406 467 21,000  Level Chicago Center
08:35AM 41.2964 -84.8467 39° Northeast 397 457 21,000 -180 Level Chicago Center
08:36AM 41.3817 -84.7536 39° Northeast 399 459 20,700 -900 Descending Chicago Center
08:37AM 41.4669 -84.6619 39° Northeast 388 447 19,200 -1,500 Descending Chicago Center
08:38AM 41.5461 -84.5750 39° Northeast 383 441 17,700 -1,560 Descending Chicago Center
08:39AM 41.6286 -84.4858 39° Northeast 383 441 16,300 -1,620 Descending Cleveland Center
08:40AM 41.6897 -84.3858 51° Northeast 386 444 14,900 -1,500 Descending Cleveland Center
08:40AM 41.6950 -84.3772 51° Northeast 389 448 14,800 -1,380 Descending Cleveland Center
08:40AM 41.7053 -84.3519 61° Northeast 385 443 14,500 -1,620 Descending Cleveland Center
08:41AM 41.7464 -84.2408 64° Northeast 384 442 13,200 -1,560 Descending Cleveland Center
08:41AM 41.7592 -84.2144 57° Northeast 379 436 12,800 -1,140 Descending Cleveland Center
08:42AM 41.7919 -84.1228 64° Northeast 360 414 12,100 -900 Descending Cleveland Center
08:42AM 41.7975 -84.1083 63° Northeast 324 373 12,000 -420 Descending Cleveland Center
08:43AM 41.8322 -84.0228 61° Northeast 311 358 11,700 -420 Descending Cleveland Center
08:43AM 41.8414 -84.0111 43° Northeast 300 345 11,600 -1,320 Descending Cleveland Center
08:44AM 41.8842 -83.9386 52° Northeast 293 337 10,400 -1,440 Descending Cleveland Center
08:44AM 41.9003 -83.9106 52° Northeast 298 343 10,000 -1,500 Descending Cleveland Center
08:45AM 41.9342 -83.8314 60° Northeast 284 327 8,800 -1,200 Descending Cleveland Center
08:46AM 41.9342 -83.7275 90° East 259 298 7,700 -900 Descending Cleveland Center
08:47AM 41.9347 -83.6603 89° East 243 280 7,100 -720 Descending Cleveland Center
08:47AM 41.9336 -83.6292 93° East 226 260 6,900 -1,020 Descending Cleveland Center
08:48AM 41.9536 -83.5747 64° Northeast 204 235 6,100 -900 Descending Cleveland Center
08:48AM 41.9578 -83.5653 59° Northeast 181 208 6,000 -720 Descending Cleveland Center
08:49AM 41.9864 -83.5400 33° Northeast 176 203 5,400 -900 Descending Cleveland Center
08:49AM 42.0003 -83.5319 23° Northeast 171 197 5,100 -1,140 Descending Cleveland Center
08:50AM 42.0425 -83.5014 28° Northeast 167 192 4,100 -900 Descending Cleveland Center
08:51AM 42.0711 -83.4781 31° Northeast 166 191 3,500 -720 Descending Cleveland Center
08:51AM 42.0828 -83.4706 26° Northeast 164 189 3,400 -780 Descending Cleveland Center
08:52AM 42.1122 -83.4483 29° Northeast 168 193 2,700 -900 Descending Cleveland Center
08:52AM 42.1247 -83.4428 18° North 163 188 2,500 -840 Descending Cleveland Center
08:53AM 42.1489 -83.4217 33° Northeast 160 184 1,900 -840 Descending Cleveland Center
08:53AM 42.1581 -83.4167 22° Northeast 134 154 1,700 -720 Descending Cleveland Center
08:54AM 42.1808 -83.3981 31° Northeast 143 165 1,200 -720 Descending Cleveland Center
08:54AM 42.1917 -83.3906 27° Northeast 130 150 1,000 -300 Descending Cleveland Center
08:55AM 42.2192 -83.3711 28° Northeast 139 160 900 -120 Descending Cleveland Center